Mist van: 20-01-2020 21:59 tot: 21-01-2020 09:59 waarschuwing voor: Mist niveau: Geel info button
Sneeuw/IJzel/Bevriezing van: 20-01-2020 23:00 tot: 21-01-2020 10:59 waarschuwing voor: Sneeuw/IJzel/Bevriezing niveau: Geel info button

Vossem Meer informatie Vossem


Tervuren markt Meer informatie Tervuren markt


Tervuren park Meer informatie Tervuren park


waarschuwing voor winterse neerslag Meer informatie rain snow radar


Bezoek onze andere website:

Meteotemplate

Home Weather Station

Saratoga


Lokaal brand risico:
CBI


Regionaal brand risico: Meer informatie



METAR rapporten vliegvelden

   
EBBR - Brussels
Gewijzigd: Jan 20 2020 10:20 pm
Mist, Grotendeels bewolkt  
Mist, Grotendeels bewolkt  
   Wind: varieert 1.9 km/h
Wind: varieert 1.9 km/h
Temperatuur: 2°C
Dauwpunt: 2°C
Vochtigheid: 100%
Barometer: 1045 mb
Bewolking: Grotendeels bewolkt
Zicht: 0 km
Bewolking: Grotendeels bewolkt 30.5 m
EBBR 202120Z VRB01KT 0200 R25L/0375N R25R/0450N R01/0350N FG BKN001 02/02 Q1045 NOSIG
EBAW - Antwerp
Gewijzigd: Jan 20 2020 10:20 pm
Mist, Grotendeels bewolkt  
Mist, Grotendeels bewolkt  
   Wind: varieert 3.7 km/h
Wind: varieert 3.7 km/h
Temperatuur: 3°C
Dauwpunt: 3°C
Vochtigheid: 100%
Barometer: 1045 mb
Bewolking: Grotendeels bewolkt
Zicht: 0 km
Bewolking: Grotendeels bewolkt 61 m
EBAW 202120Z VRB02KT 0200 R11/0350N R29/0400N FG BKN002 03/03 Q1045 NOSIG
EHBK - Maastricht
Gewijzigd: Jan 20 2020 10:25 pm
Light Freezing, Regen, Mogelijk wat sneeuw, Bewolking  
Light Freezing, Regen, Mogelijk wat sneeuw, Bewolking  
   Wind: ONO 5.6 km/h
Wind: ONO 5.6 km/h
Temperatuur: 0°C
Voelt als: -2°C
Dauwpunt: 0°C
Vochtigheid: 100%
Barometer: 1045 mb
Bewolking: Bewolking
Zicht: 0 km
Bewolking: Bewolking
EHBK 202125Z AUTO 07003KT 050V120 0200 R21/0300N -FZRA -SN VV000 M00/M00 Q1045 NOSIG
EDLV - Nijmegen
Gewijzigd: Jan 20 2020 10:20 pm
Mist  
Mist  
   Wind: ZZO 7.4 km/h
Wind: ZZO 7.4 km/h
Temperatuur: 3°C
Voelt als: 1°C
Dauwpunt: 3°C
Vochtigheid: 100%
Barometer: 1045 mb
Zicht: 0 km
Bewolking: Bewolking
EDLV 202120Z 16004KT 0350 R27/0350V0500N FG VV/// 03/03 Q1045
EHRD - Rotterdam
Gewijzigd: Jan 20 2020 10:25 pm
Nevel, Helder  
Nevel, Helder  
   Wind: Zuiden 9.3 km/h
Wind: Zuiden 9.3 km/h
Temperatuur: 3°C
Voelt als: 1°C
Dauwpunt: 3°C
Vochtigheid: 100%
Barometer: 1045 mb
Bewolking: Helder
Zicht: 4 km
Bewolking: Helder
EHRD 202125Z AUTO 18005KT 3800 BR NCD 03/03 Q1045 TEMPO 1400 BCFG
 

Script ontwikkeld door  Saratoga-weather.org Aangepast voor de template door  Weerstation Leuven

U vindt ons ook hier:

Het Weer Aktueel

UK Metoffice

European Weather Network

WeatherCloud

Weather Underground

Benelux Weer Netwerk

AWEKAS

Citizen Weather Observer Program (CWOP)

Apparatuur in gebruik:

Weerstation
Davis VP2

Weerprogramma
Meteobridge

Weercomputer
TP-Link MR3020

Davis VP2

Meteobridge

TP-Link MR3020